Time;durP1;ratioP1;P1;durP2;ratioP2;P2;SDS_P1;SDS_P2;PMS_P1;PMS_P2;Temp;Humidity;BMP_temperature;BMP_pressure;BME280_temperature;BME280_humidity;BME280_pressure;Samples;Min_cycle;Max_cycle;Signal;HPM_P1;HPM_P2
2023/12/17 00:00:49;;;;;;;33.25;30.95;;;;;;;-0.63;100.00;103490.03;5004541;28;20086;-77
2023/12/17 00:03:17;;;;;;;35.15;32.75;;;;;;;-0.63;100.00;103485.66;5006470;28;20089;-76
2023/12/17 00:05:49;;;;;;;28.88;26.77;;;;;;;-0.69;100.00;103491.13;5010077;28;20771;-77
2023/12/17 00:08:20;;;;;;;29.27;27.17;;;;;;;-0.51;100.00;103498.19;5009048;28;20101;-77
2023/12/17 00:10:47;;;;;;;30.13;28.02;;;;;;;-0.60;100.00;103502.94;5010388;28;20057;-78
2023/12/17 01:17:58;;;;;;;26.67;24.48;;;;;;;0.11;100.00;103516.38;4957924;28;20226;-74
2023/12/17 02:35:18;;;;;;;31.98;29.67;;;;;;;-0.05;100.00;103521.44;5063131;28;20123;-78
2023/12/17 02:37:45;;;;;;;31.58;29.17;;;;;;;0.13;100.00;103520.63;5068964;28;20496;-78
2023/12/17 02:40:12;;;;;;;36.10;33.22;;;;;;;0.04;100.00;103523.66;5055986;28;20045;-78
2023/12/17 02:42:39;;;;;;;32.67;30.08;;;;;;;-0.06;100.00;103524.94;5067341;28;20084;-78
2023/12/17 02:45:09;;;;;;;31.10;28.60;;;;;;;-0.06;100.00;103517.13;5067613;28;20048;-78
2023/12/17 02:47:45;;;;;;;30.83;28.52;;;;;;;0.16;100.00;103514.41;5068473;28;20056;-78
2023/12/17 02:50:12;;;;;;;30.73;28.35;;;;;;;-0.03;100.00;103510.00;5049573;28;20060;-78
2023/12/17 02:52:40;;;;;;;37.30;33.92;;;;;;;-0.02;100.00;103511.69;5069134;28;20052;-78
2023/12/17 02:55:09;;;;;;;31.67;29.17;;;;;;;-0.11;100.00;103509.50;5059014;28;20440;-78
2023/12/17 02:57:36;;;;;;;33.05;30.60;;;;;;;0.30;100.00;103504.16;5069114;28;20118;-78
2023/12/17 03:00:03;;;;;;;34.97;32.28;;;;;;;0.17;100.00;103506.47;5050219;28;20049;-78
2023/12/17 03:02:30;;;;;;;33.80;31.02;;;;;;;0.20;100.00;103508.13;5064007;28;20053;-78
2023/12/17 03:05:00;;;;;;;35.08;32.28;;;;;;;0.28;100.00;103508.63;5069248;28;20053;-78
2023/12/17 03:07:55;;;;;;;41.95;38.90;;;;;;;0.23;100.00;103506.19;5069316;28;20044;-78
2023/12/17 03:10:22;;;;;;;34.90;32.10;;;;;;;0.16;100.00;103515.25;5069242;28;20761;-78
2023/12/17 03:12:49;;;;;;;35.35;32.63;;;;;;;0.19;100.00;103509.03;5079106;28;20056;-78
2023/12/17 03:15:16;;;;;;;36.95;33.65;;;;;;;0.15;100.00;103517.91;5065636;28;20055;-78
2023/12/17 03:17:43;;;;;;;35.90;33.03;;;;;;;0.23;100.00;103516.66;5048837;28;20064;-79
2023/12/17 03:20:10;;;;;;;37.55;34.65;;;;;;;0.19;100.00;103515.13;5066709;28;20053;-78
2023/12/17 03:22:37;;;;;;;41.78;38.28;;;;;;;0.61;100.00;103508.81;5069181;28;20063;-78
2023/12/17 03:25:06;;;;;;;43.60;40.30;;;;;;;0.56;100.00;103507.34;5069392;28;20427;-78
2023/12/17 03:27:33;;;;;;;41.72;38.63;;;;;;;0.36;100.00;103498.63;5072318;28;20056;-78
2023/12/17 03:30:00;;;;;;;37.92;35.05;;;;;;;0.22;100.00;103501.06;5076865;28;20068;-78
2023/12/17 03:52:36;;;;;;;37.40;33.67;;;;;;;0.20;100.00;103498.50;4995922;28;20485;-78
2023/12/17 03:55:50;;;;;;;39.05;36.15;;;;;;;0.35;100.00;103498.72;5069476;28;20056;-73
2023/12/17 03:58:23;;;;;;;37.65;34.55;;;;;;;0.19;100.00;103488.13;5055011;28;20244;-78
2023/12/17 04:01:06;;;;;;;37.08;34.22;;;;;;;-0.03;100.00;103504.78;5061437;28;20131;-78
2023/12/17 04:03:34;;;;;;;37.25;34.28;;;;;;;0.08;100.00;103503.44;5069053;28;20423;-78
2023/12/17 04:06:08;;;;;;;35.20;32.40;;;;;;;-0.14;100.00;103512.25;5072207;28;20056;-78
2023/12/17 04:08:37;;;;;;;42.50;39.45;;;;;;;0.53;100.00;103499.63;5056576;28;20060;-78
2023/12/17 04:11:12;;;;;;;38.83;35.72;;;;;;;0.09;100.00;103503.38;5061460;28;20662;-78
2023/12/17 04:13:39;;;;;;;35.80;33.28;;;;;;;-0.04;100.00;103497.00;5067008;28;20059;-78
2023/12/17 04:16:07;;;;;;;36.03;33.42;;;;;;;0.14;100.00;103498.78;5074363;28;20435;-78
2023/12/17 04:18:34;;;;;;;35.65;32.95;;;;;;;0.17;100.00;103505.63;5073438;28;20605;-78
2023/12/17 04:21:01;;;;;;;35.60;32.78;;;;;;;-0.03;100.00;103490.84;5065902;28;20052;-78
2023/12/17 04:23:34;;;;;;;35.17;32.67;;;;;;;0.07;100.00;103499.16;5051683;28;20060;-78
2023/12/17 04:26:02;;;;;;;38.55;35.75;;;;;;;0.31;100.00;103498.03;5058467;28;20055;-78
2023/12/17 04:28:35;;;;;;;42.55;39.70;;;;;;;0.30;100.00;103498.06;5056404;28;20053;-75
2023/12/17 04:31:02;;;;;;;40.88;37.97;;;;;;;0.12;100.00;103499.75;5068313;28;20044;-78
2023/12/17 04:33:32;;;;;;;40.90;37.35;;;;;;;0.27;100.00;103508.69;5070173;28;20063;-78
2023/12/17 04:35:59;;;;;;;39.60;36.75;;;;;;;0.23;100.00;103503.59;5066585;28;20056;-78
2023/12/17 04:38:26;;;;;;;38.25;35.55;;;;;;;0.28;100.00;103506.00;5062039;28;20060;-78
2023/12/17 04:40:55;;;;;;;39.25;36.22;;;;;;;0.36;100.00;103506.47;5064959;28;20053;-78
2023/12/17 04:43:26;;;;;;;44.22;41.03;;;;;;;0.22;100.00;103507.13;5069279;28;20063;-78
2023/12/17 04:45:59;;;;;;;41.97;38.72;;;;;;;0.20;100.00;103502.88;5067113;28;20482;-78
2023/12/17 04:48:27;;;;;;;39.10;36.20;;;;;;;0.15;100.00;103502.25;5070846;28;20045;-78
2023/12/17 04:50:53;;;;;;;38.20;35.50;;;;;;;0.12;100.00;103505.00;5066413;28;20056;-78
2023/12/17 04:53:20;;;;;;;40.30;37.30;;;;;;;-0.01;100.00;103509.94;5056880;28;20068;-78
2023/12/17 04:55:47;;;;;;;46.15;43.25;;;;;;;0.02;100.00;103507.19;5067114;28;20065;-78
2023/12/17 04:58:14;;;;;;;37.55;34.95;;;;;;;-0.01;100.00;103496.84;5066723;28;20825;-78
2023/12/17 05:00:42;;;;;;;38.63;35.83;;;;;;;0.13;100.00;103499.72;5068416;28;20048;-78
2023/12/17 05:03:14;;;;;;;38.60;35.80;;;;;;;-0.01;100.00;103486.41;5069620;28;20053;-78
2023/12/17 05:05:42;;;;;;;36.50;33.80;;;;;;;-0.05;100.00;103501.38;5053222;28;20057;-78
2023/12/17 05:08:09;;;;;;;34.25;31.75;;;;;;;-0.13;100.00;103506.09;5061601;28;20044;-78
2023/12/17 05:10:36;;;;;;;33.63;31.33;;;;;;;0.02;100.00;103504.56;5067254;28;20067;-78
2023/12/17 05:13:03;;;;;;;34.42;32.03;;;;;;;0.00;100.00;103511.66;5066051;28;20463;-78
2023/12/17 05:15:31;;;;;;;35.28;32.08;;;;;;;-0.13;100.00;103508.69;5062138;28;20063;-78
2023/12/17 05:17:59;;;;;;;33.00;30.35;;;;;;;-0.06;100.00;103504.91;5064231;28;20084;-78
2023/12/17 05:20:29;;;;;;;39.15;36.40;;;;;;;-0.16;100.00;103510.59;5060414;28;20048;-78
2023/12/17 05:22:56;;;;;;;38.50;35.97;;;;;;;-0.21;100.00;103499.50;5070744;28;20075;-78
2023/12/17 05:25:24;;;;;;;35.63;33.13;;;;;;;-0.26;100.00;103502.34;5064918;28;20430;-78
2023/12/17 05:27:50;;;;;;;35.42;33.03;;;;;;;-0.65;100.00;103505.75;5065410;28;20048;-78
2023/12/17 05:30:18;;;;;;;36.95;33.83;;;;;;;-0.40;100.00;103508.16;5069956;28;20053;-78
2023/12/17 05:48:54;;;;;;;28.23;26.52;;;;;;;-1.23;100.00;103529.00;5047717;28;20123;-78
2023/12/17 05:51:21;;;;;;;25.80;24.30;;;;;;;-1.22;100.00;103528.06;5054869;28;20522;-78
2023/12/17 05:53:48;;;;;;;27.20;25.63;;;;;;;-1.14;100.00;103528.63;5054330;28;20155;-78
2023/12/17 05:56:15;;;;;;;33.92;32.13;;;;;;;-1.12;100.00;103534.63;5067629;28;20054;-78
2023/12/17 05:58:43;;;;;;;29.70;28.00;;;;;;;-1.12;100.00;103541.59;5068428;28;20059;-78
2023/12/17 06:01:10;;;;;;;28.90;27.30;;;;;;;-1.10;100.00;103526.75;5054179;28;20060;-78
2023/12/17 06:03:38;;;;;;;32.45;30.48;;;;;;;-0.87;100.00;103536.25;5053456;28;20048;-78
2023/12/17 06:06:07;;;;;;;34.45;32.30;;;;;;;-0.98;100.00;103529.69;5051750;28;20053;-78
2023/12/17 06:08:37;;;;;;;35.72;33.42;;;;;;;-0.89;100.00;103538.91;5062572;28;20060;-78
2023/12/17 06:11:04;;;;;;;34.40;32.30;;;;;;;-0.87;100.00;103538.88;5070641;28;20052;-78
2023/12/17 06:13:33;;;;;;;33.83;31.33;;;;;;;-0.88;100.00;103535.38;5067175;28;20136;-78
2023/12/17 06:16:03;;;;;;;32.90;30.48;;;;;;;-0.68;100.00;103544.19;5063400;28;20152;-78
2023/12/17 06:18:30;;;;;;;35.05;32.83;;;;;;;-0.76;100.00;103541.88;5060439;28;20118;-77
2023/12/17 06:21:00;;;;;;;32.25;30.05;;;;;;;-0.85;100.00;103532.66;5069230;28;20052;-78
2023/12/17 06:23:27;;;;;;;37.38;34.78;;;;;;;-0.69;100.00;103543.34;5065844;28;20048;-78
2023/12/17 06:25:54;;;;;;;35.65;33.28;;;;;;;-0.67;100.00;103549.31;5074451;28;20060;-78
2023/12/17 06:28:21;;;;;;;34.28;31.92;;;;;;;-0.52;100.00;103550.44;5072995;28;20056;-78
2023/12/17 06:30:48;;;;;;;36.22;33.17;;;;;;;-0.12;100.00;103554.84;5073192;28;20091;-78
2023/12/17 06:33:15;;;;;;;35.22;32.75;;;;;;;-0.06;100.00;103558.91;5069202;28;20067;-78
2023/12/17 06:35:42;;;;;;;34.70;32.50;;;;;;;0.14;100.00;103558.06;5067822;28;20048;-78
2023/12/17 06:38:10;;;;;;;40.45;37.85;;;;;;;0.22;100.00;103562.03;5065942;28;20435;-78
2023/12/17 06:40:37;;;;;;;39.75;36.53;;;;;;;0.32;100.00;103572.06;5067432;28;20131;-78
2023/12/17 07:00:19;;;;;;;36.90;34.40;;;;;;;0.35;100.00;103564.94;5044912;28;20119;-73
2023/12/17 07:02:46;;;;;;;37.92;35.33;;;;;;;0.41;100.00;103577.72;5050859;28;20075;-78
2023/12/17 07:05:13;;;;;;;37.33;34.83;;;;;;;0.41;100.00;103569.03;5052028;28;20126;-78
2023/12/17 07:07:41;;;;;;;39.88;37.25;;;;;;;0.32;100.00;103577.31;5053484;28;20048;-78
2023/12/17 07:10:11;;;;;;;41.92;39.03;;;;;;;0.40;100.00;103572.59;5050466;28;20068;-77
2023/12/17 07:20:11;;;;;;;47.65;44.35;;;;;;;0.68;100.00;103567.75;4995089;28;20041;-74
2023/12/17 07:22:38;;;;;;;45.30;42.20;;;;;;;0.55;100.00;103563.19;5004695;28;20061;-78
2023/12/17 07:25:18;;;;;;;46.70;43.40;;;;;;;0.71;100.00;103556.31;5035976;28;20759;-78
2023/12/17 07:27:45;;;;;;;49.97;46.47;;;;;;;0.66;100.00;103558.28;5049477;28;20056;-78
2023/12/17 07:30:13;;;;;;;48.05;44.55;;;;;;;0.93;100.00;103557.91;5052402;28;20443;-78
2023/12/17 07:32:39;;;;;;;47.10;43.55;;;;;;;0.94;100.00;103556.97;5077679;28;20051;-78
2023/12/17 07:35:08;;;;;;;50.13;46.63;;;;;;;0.87;100.00;103541.56;5071603;28;20055;-78
2023/12/17 07:37:44;;;;;;;49.85;46.33;;;;;;;1.02;100.00;103553.06;5068642;28;20084;-78
2023/12/17 07:40:11;;;;;;;48.88;45.47;;;;;;;1.37;100.00;103548.72;5065246;28;20045;-78
2023/12/17 07:42:39;;;;;;;51.15;47.50;;;;;;;1.41;100.00;103551.19;5066307;28;20049;-79
2023/12/17 07:45:07;;;;;;;50.17;46.67;;;;;;;1.12;100.00;103551.72;5069770;28;20061;-78
2023/12/17 07:47:34;;;;;;;48.67;44.78;;;;;;;0.89;100.00;103542.34;5065593;28;20060;-78
2023/12/17 07:50:01;;;;;;;46.42;43.10;;;;;;;0.71;100.00;103532.75;5068796;28;20792;-79
2023/12/17 07:52:28;;;;;;;49.95;46.05;;;;;;;0.47;100.00;103541.75;5066466;28;20439;-78
2023/12/17 07:54:56;;;;;;;46.60;43.20;;;;;;;0.61;100.00;103534.13;5071850;28;20063;-78
2023/12/17 07:57:23;;;;;;;46.78;42.83;;;;;;;1.24;100.00;103531.06;5060220;28;20459;-78
2023/12/17 07:59:50;;;;;;;45.58;42.03;;;;;;;0.81;100.00;103536.63;5068515;28;20053;-78
2023/12/17 08:02:28;;;;;;;46.92;43.58;;;;;;;0.74;100.00;103543.09;5065072;28;20500;-78
2023/12/17 08:04:57;;;;;;;49.25;45.65;;;;;;;1.14;100.00;103549.84;5072182;28;20084;-78
2023/12/17 08:07:27;;;;;;;48.88;45.38;;;;;;;0.82;100.00;103548.81;5074728;28;20078;-78
2023/12/17 08:10:27;;;;;;;45.22;42.03;;;;;;;1.05;100.00;103547.69;5070511;28;20088;-74
2023/12/17 08:13:04;;;;;;;47.00;43.57;;;;;;;0.95;100.00;103543.00;5075764;28;20098;-78
2023/12/17 08:15:31;;;;;;;50.22;46.22;;;;;;;0.93;100.00;103544.81;5066615;28;20506;-79
2023/12/17 08:17:58;;;;;;;48.38;44.97;;;;;;;1.28;100.00;103549.19;5072035;28;20145;-78
2023/12/17 08:20:25;;;;;;;47.22;43.92;;;;;;;1.01;100.00;103535.69;5057875;28;20048;-78
2023/12/17 08:22:52;;;;;;;48.55;44.90;;;;;;;0.98;100.00;103535.84;5071472;28;20053;-79
2023/12/17 08:25:19;;;;;;;47.78;44.38;;;;;;;0.97;100.00;103536.75;5071058;28;20048;-78
2023/12/17 08:27:47;;;;;;;44.03;40.92;;;;;;;1.10;100.00;103532.63;5071460;28;20455;-79
2023/12/17 08:30:15;;;;;;;46.28;43.08;;;;;;;0.98;100.00;103537.59;5069651;28;20056;-78
2023/12/17 08:32:52;;;;;;;49.63;46.13;;;;;;;1.86;100.00;103544.53;5076000;28;20531;-79
2023/12/17 08:35:19;;;;;;;50.83;47.13;;;;;;;0.97;100.00;103542.00;5067649;28;20071;-79
2023/12/17 08:37:46;;;;;;;54.25;50.55;;;;;;;1.31;100.00;103548.19;5063994;28;20075;-78
2023/12/17 08:40:14;;;;;;;53.13;49.28;;;;;;;1.29;100.00;103550.88;5070323;28;20159;-78
2023/12/17 08:42:41;;;;;;;53.15;49.25;;;;;;;1.80;100.00;103545.69;5070218;28;20108;-78
2023/12/17 08:45:19;;;;;;;54.97;51.17;;;;;;;1.57;100.00;103534.66;5065180;28;20052;-78
2023/12/17 08:47:46;;;;;;;52.80;49.20;;;;;;;1.37;100.00;103533.03;5070441;28;20131;-79
2023/12/17 08:50:14;;;;;;;52.28;48.60;;;;;;;1.43;100.00;103526.63;5063884;28;20053;-78
2023/12/17 09:08:42;;;;;;;62.45;58.05;;;;;;;1.91;100.00;103505.84;4735582;27;10001869;-75
2023/12/17 09:11:11;;;;;;;59.58;55.17;;;;;;;1.75;100.00;103498.75;5081294;28;20059;-75
2023/12/17 09:13:38;;;;;;;54.80;50.80;;;;;;;1.40;100.00;103492.72;5082393;28;20051;-76
2023/12/17 09:16:07;;;;;;;58.63;54.42;;;;;;;1.96;100.00;103490.69;5083344;28;20052;-76
2023/12/17 09:18:34;;;;;;;52.80;49.10;;;;;;;1.37;100.00;103492.91;5087120;28;20059;-76
2023/12/17 09:21:01;;;;;;;51.65;48.15;;;;;;;2.57;100.00;103487.34;5086689;28;20449;-76
2023/12/17 09:23:28;;;;;;;43.95;40.92;;;;;;;1.99;100.00;103488.75;5090067;28;20075;-75
2023/12/17 09:25:57;;;;;;;48.40;45.20;;;;;;;1.32;100.00;103490.50;5086312;28;20055;-75
2023/12/17 09:28:24;;;;;;;57.95;54.05;;;;;;;2.67;100.00;103471.94;5090820;28;20134;-76
2023/12/17 09:30:52;;;;;;;48.42;44.88;;;;;;;1.40;100.00;103478.81;5088245;28;20433;-75
2023/12/17 09:33:21;;;;;;;50.85;47.35;;;;;;;1.58;100.00;103480.47;5088288;28;20052;-75
2023/12/17 09:35:48;;;;;;;58.50;54.38;;;;;;;1.28;100.00;103464.56;5087997;28;20232;-74
2023/12/17 09:38:16;;;;;;;61.08;55.75;;;;;;;1.92;100.00;103453.31;5095647;28;20051;-75
2023/12/17 09:40:43;;;;;;;48.25;44.67;;;;;;;2.46;100.00;103458.25;5098472;28;20515;-75
2023/12/17 09:43:13;;;;;;;47.22;43.80;;;;;;;2.71;100.00;103455.91;5091665;28;20116;-75
2023/12/17 09:45:42;;;;;;;51.90;48.55;;;;;;;3.09;100.00;103454.66;5081580;28;20044;-75
2023/12/17 09:48:09;;;;;;;40.75;38.05;;;;;;;2.50;100.00;103460.59;5088933;28;20040;-78
2023/12/17 09:50:36;;;;;;;40.50;37.65;;;;;;;3.85;100.00;103439.50;5093044;28;20459;-75
2023/12/17 09:53:03;;;;;;;40.28;37.47;;;;;;;4.25;100.00;103425.63;5083477;28;20052;-75
2023/12/17 09:55:30;;;;;;;35.17;32.55;;;;;;;3.63;100.00;103431.25;5086718;28;20041;-75
2023/12/17 09:58:02;;;;;;;34.22;31.73;;;;;;;3.69;100.00;103425.59;5088709;28;20052;-75
2023/12/17 10:00:30;;;;;;;;;;;;;;;4.74;100.00;103414.53;5070169;28;20060;-75
2023/12/17 10:03:02;;;;;;;30.95;28.65;;;;;;;4.32;100.00;103396.19;5080454;28;19931;-75
2023/12/17 10:05:29;;;;;;;31.90;29.52;;;;;;;3.75;100.00;103406.84;5071461;28;20052;-75
2023/12/17 10:07:56;;;;;;;34.05;31.05;;;;;;;5.42;100.00;103405.53;5081247;28;20435;-75
2023/12/17 10:10:23;;;;;;;30.15;27.92;;;;;;;5.27;100.00;103404.81;5071978;28;20201;-75
2023/12/17 10:12:51;;;;;;;30.52;28.33;;;;;;;3.82;100.00;103397.63;5080997;28;20051;-75
2023/12/17 10:15:19;;;;;;;29.88;27.77;;;;;;;4.83;100.00;103398.13;5074127;28;20347;-75
2023/12/17 10:17:48;;;;;;;30.83;28.52;;;;;;;6.46;100.00;103406.03;5075174;28;20041;-75
2023/12/17 10:20:19;;;;;;;32.45;30.25;;;;;;;5.92;100.00;103399.31;5074950;28;20139;-75
2023/12/17 10:22:59;;;;;;;38.90;36.30;;;;;;;7.07;100.00;103398.75;5074317;28;20044;-75
2023/12/17 10:25:27;;;;;;;30.63;28.52;;;;;;;6.22;100.00;103386.69;5077143;28;20436;-75
2023/12/17 10:27:57;;;;;;;30.63;28.42;;;;;;;6.20;100.00;103402.63;5071728;28;20048;-75
2023/12/17 10:30:28;;;;;;;28.73;26.63;;;;;;;6.34;100.00;103385.81;5071312;28;20048;-75
2023/12/17 10:32:57;;;;;;;27.37;25.27;;;;;;;6.27;100.00;103390.69;5073520;28;20051;-76
2023/12/17 10:35:25;;;;;;;25.08;23.17;;;;;;;5.30;100.00;103399.31;5080397;28;20272;-75
2023/12/17 10:37:54;;;;;;;28.98;26.63;;;;;;;6.04;100.00;103395.00;5077566;28;20157;-75
2023/12/17 10:40:22;;;;;;;29.60;27.50;;;;;;;6.09;100.00;103384.13;5070809;28;20052;-76
2023/12/17 10:42:50;;;;;;;29.23;27.23;;;;;;;4.90;100.00;103388.00;5071698;28;20052;-75
2023/12/17 10:45:19;;;;;;;28.67;26.55;;;;;;;5.65;100.00;103380.19;5071572;28;20076;-75
2023/12/17 10:47:51;;;;;;;25.60;23.80;;;;;;;5.52;100.00;103388.13;5070802;28;20040;-75
2023/12/17 10:50:20;;;;;;;26.42;24.42;;;;;;;5.76;100.00;103376.81;5076618;28;20059;-75
2023/12/17 10:52:48;;;;;;;28.02;25.95;;;;;;;6.05;100.00;103377.38;5065738;28;20141;-74
2023/12/17 10:55:15;;;;;;;23.35;21.65;;;;;;;4.67;100.00;103384.28;5072729;28;20417;-75
2023/12/17 10:57:47;;;;;;;25.13;23.38;;;;;;;4.85;100.00;103375.16;5074744;28;20044;-74
2023/12/17 11:00:18;;;;;;;27.67;25.70;;;;;;;4.20;100.00;103375.94;5061725;28;20501;-74
2023/12/17 11:02:46;;;;;;;30.27;28.17;;;;;;;4.36;100.00;103368.75;4983907;28;20684;-74
2023/12/17 11:05:14;;;;;;;33.22;30.83;;;;;;;4.97;100.00;103365.59;5005789;28;20632;-74
2023/12/17 11:07:42;;;;;;;28.90;26.85;;;;;;;4.56;100.00;103369.19;4995647;28;20050;-76
2023/12/17 11:10:11;;;;;;;33.63;31.13;;;;;;;4.50;100.00;103365.19;5003883;28;20530;-76
2023/12/17 11:12:40;;;;;;;30.25;28.10;;;;;;;4.91;100.00;103364.22;4997401;28;20053;-75
2023/12/17 11:15:08;;;;;;;29.17;27.08;;;;;;;5.99;100.00;103362.84;5002412;28;20403;-75
2023/12/17 11:17:35;;;;;;;29.83;27.35;;;;;;;5.98;100.00;103358.50;5003247;28;20053;-76
2023/12/17 11:20:03;;;;;;;29.50;27.20;;;;;;;5.68;100.00;103361.50;5006423;28;20532;-76
2023/12/17 11:22:34;;;;;;;29.23;26.85;;;;;;;6.02;100.00;103354.72;5007342;28;20052;-75
2023/12/17 11:25:03;;;;;;;28.73;26.42;;;;;;;6.56;100.00;103343.63;5003697;28;20042;-75
2023/12/17 11:27:32;;;;;;;31.02;28.73;;;;;;;7.21;100.00;103331.63;5006669;28;20445;-76
2023/12/17 11:29:59;;;;;;;26.90;24.80;;;;;;;6.39;100.00;103317.69;5005737;28;20076;-74
2023/12/17 11:32:27;;;;;;;28.55;26.35;;;;;;;7.09;100.00;103314.09;5005135;28;20468;-74
2023/12/17 11:34:54;;;;;;;29.80;27.40;;;;;;;6.57;100.00;103318.94;5008136;28;20058;-75
2023/12/17 11:37:23;;;;;;;30.20;27.80;;;;;;;6.06;100.00;103316.56;5003550;28;20562;-75
2023/12/17 11:39:51;;;;;;;28.98;26.80;;;;;;;6.82;100.00;103323.19;5001621;28;20046;-74
2023/12/17 11:42:21;;;;;;;27.88;25.67;;;;;;;6.35;100.00;103308.28;4997725;28;20054;-74
2023/12/17 11:44:49;;;;;;;29.98;27.58;;;;;;;6.49;100.00;103318.66;5000228;28;20638;-74
2023/12/17 11:47:17;;;;;;;26.05;24.00;;;;;;;6.19;100.00;103314.72;4995883;28;20061;-74
2023/12/17 11:49:44;;;;;;;25.58;23.55;;;;;;;6.56;100.00;103317.22;4997692;28;20049;-75
2023/12/17 11:52:13;;;;;;;25.38;23.48;;;;;;;6.91;100.00;103318.16;4996194;28;20058;-74
2023/12/17 11:54:41;;;;;;;23.48;21.77;;;;;;;7.13;100.00;103320.81;5006206;28;20438;-74
2023/12/17 11:57:24;;;;;;;23.60;21.80;;;;;;;5.49;100.00;103311.91;4998894;28;20435;-74
2023/12/17 11:59:51;;;;;;;23.17;21.38;;;;;;;6.54;100.00;103308.59;5002158;28;20061;-74
2023/12/17 12:02:20;;;;;;;22.90;21.20;;;;;;;6.86;100.00;103307.94;5008558;28;20054;-74
2023/12/17 12:04:47;;;;;;;23.67;21.88;;;;;;;5.45;100.00;103284.06;5003067;28;20056;-74
2023/12/17 12:07:17;;;;;;;22.00;20.38;;;;;;;5.09;100.00;103296.25;4997158;28;20065;-75
2023/12/17 12:09:44;;;;;;;22.70;21.10;;;;;;;5.74;100.00;103290.72;5014323;28;20053;-74
2023/12/17 12:12:17;;;;;;;21.45;19.85;;;;;;;5.85;100.00;103289.94;5012442;28;20050;-75
2023/12/17 12:14:48;;;;;;;20.90;19.35;;;;;;;6.43;100.00;103305.91;5003975;28;20062;-74
2023/12/17 12:17:39;;;;;;;21.77;20.17;;;;;;;8.31;100.00;103284.81;5009555;28;20524;-74
2023/12/17 12:20:08;;;;;;;22.38;20.77;;;;;;;7.90;100.00;103278.50;4998835;28;20423;-75
2023/12/17 12:22:35;;;;;;;21.95;20.35;;;;;;;8.43;100.00;103280.31;5003328;28;20433;-73
2023/12/17 12:25:02;;;;;;;22.35;20.75;;;;;;;10.34;100.00;103280.31;5001168;28;20050;-75
2023/12/17 12:27:29;;;;;;;21.88;20.27;;;;;;;8.83;100.00;103269.81;5006509;28;20417;-74
2023/12/17 12:29:59;;;;;;;21.30;19.65;;;;;;;9.60;100.00;103268.41;5004365;28;20434;-74
2023/12/17 12:32:30;;;;;;;20.67;19.17;;;;;;;10.05;100.00;103273.19;5001204;28;20042;-73
2023/12/17 12:34:56;;;;;;;21.83;20.33;;;;;;;8.65;100.00;103268.72;4993448;28;20422;-75
2023/12/17 12:37:34;;;;;;;22.08;20.48;;;;;;;7.68;100.00;103270.63;5003177;28;20057;-74
2023/12/17 12:40:00;;;;;;;20.70;19.20;;;;;;;7.84;100.00;103262.25;4995391;28;20049;-75
2023/12/17 12:42:28;;;;;;;20.65;19.25;;;;;;;6.86;100.00;103265.66;5000717;28;20135;-75
2023/12/17 12:44:57;;;;;;;23.67;21.88;;;;;;;6.87;100.00;103267.34;5003615;28;20050;-74
2023/12/17 12:47:24;;;;;;;21.98;20.48;;;;;;;6.81;100.00;103271.31;5003028;28;20050;-75
2023/12/17 12:49:51;;;;;;;22.10;20.50;;;;;;;6.60;100.00;103268.53;5000765;28;20061;-75
2023/12/17 12:52:18;;;;;;;22.30;20.70;;;;;;;6.96;100.00;103258.72;5000762;28;20049;-75
2023/12/17 12:54:47;;;;;;;20.65;19.25;;;;;;;7.00;100.00;103256.66;4999222;28;20054;-75
2023/12/17 12:57:13;;;;;;;21.08;19.58;;;;;;;7.18;100.00;103255.22;4998863;28;20508;-75
2023/12/17 12:59:40;;;;;;;19.80;18.50;;;;;;;7.40;100.00;103241.09;5002192;28;20446;-75
2023/12/17 13:02:09;;;;;;;21.17;19.77;;;;;;;6.35;100.00;103253.69;5006113;28;20058;-74
2023/12/17 13:04:35;;;;;;;23.63;21.38;;;;;;;6.65;100.00;103255.78;5009638;28;20533;-74
2023/12/17 13:07:02;;;;;;;21.30;19.70;;;;;;;6.46;100.00;103254.69;5006860;28;20046;-74
2023/12/17 13:09:29;;;;;;;21.55;20.05;;;;;;;5.95;100.00;103254.03;5003826;28;20042;-74
2023/12/17 13:11:56;;;;;;;21.55;20.05;;;;;;;5.67;100.00;103247.28;5007672;28;20049;-74
2023/12/17 13:14:23;;;;;;;22.38;20.67;;;;;;;5.52;100.00;103245.75;5006740;28;20430;-74
2023/12/17 13:16:53;;;;;;;22.98;21.48;;;;;;;5.36;100.00;103243.41;5005687;28;20069;-74
2023/12/17 13:19:21;;;;;;;22.65;21.10;;;;;;;5.96;100.00;103245.19;5002832;28;20411;-75
2023/12/17 13:21:48;;;;;;;21.50;20.05;;;;;;;5.99;100.00;103245.91;5006206;28;20515;-75
2023/12/17 13:24:15;;;;;;;24.55;22.95;;;;;;;5.71;100.00;103246.09;5002809;28;20053;-74
2023/12/17 13:26:42;;;;;;;23.73;22.05;;;;;;;5.59;100.00;103239.09;4998760;28;20053;-73
2023/12/17 13:29:09;;;;;;;22.58;20.77;;;;;;;5.45;100.00;103245.38;5007143;28;20050;-75
2023/12/17 13:31:36;;;;;;;20.38;19.08;;;;;;;5.36;100.00;103234.66;5002321;28;20431;-74
2023/12/17 13:34:03;;;;;;;21.20;19.80;;;;;;;4.71;100.00;103226.00;5016767;28;20458;-74
2023/12/17 13:36:31;;;;;;;23.55;21.35;;;;;;;4.83;100.00;103234.84;5001801;28;20058;-75
2023/12/17 13:38:58;;;;;;;24.10;22.23;;;;;;;4.67;100.00;103237.72;4997643;28;20072;-75
2023/12/17 13:41:25;;;;;;;23.13;21.67;;;;;;;4.89;100.00;103242.31;5013768;28;20060;-75
2023/12/17 13:43:52;;;;;;;23.70;22.20;;;;;;;4.79;100.00;103231.59;4997863;28;20096;-75
2023/12/17 13:46:19;;;;;;;21.40;20.00;;;;;;;4.64;100.00;103239.72;5008974;28;20052;-74
2023/12/17 13:48:46;;;;;;;21.48;20.08;;;;;;;4.87;100.00;103224.94;5006291;28;20729;-75
2023/12/17 13:51:13;;;;;;;21.83;20.45;;;;;;;4.92;100.00;103233.38;5006767;28;20468;-74
2023/12/17 13:53:42;;;;;;;21.90;20.30;;;;;;;4.88;100.00;103224.84;5008191;28;20455;-74
2023/12/17 13:56:08;;;;;;;21.92;20.42;;;;;;;4.82;100.00;103220.84;5007967;28;20112;-75
2023/12/17 13:58:36;;;;;;;22.63;21.02;;;;;;;4.34;100.00;103212.72;5011271;28;20076;-74
2023/12/17 14:01:03;;;;;;;22.45;20.90;;;;;;;4.28;100.00;103204.41;5013660;28;20073;-75
2023/12/17 14:03:30;;;;;;;23.15;21.60;;;;;;;4.50;100.00;103217.78;5011039;28;20115;-74
2023/12/17 14:05:57;;;;;;;24.95;23.15;;;;;;;4.23;100.00;103223.13;5005061;28;20050;-75
2023/12/17 14:08:24;;;;;;;25.70;23.80;;;;;;;4.04;100.00;103215.63;5004208;28;20045;-74
2023/12/17 14:10:52;;;;;;;28.10;25.65;;;;;;;4.14;100.00;103215.84;4998521;28;20602;-74
2023/12/17 14:13:20;;;;;;;40.83;37.55;;;;;;;4.01;100.00;103207.94;5003021;28;20057;-74
2023/12/17 14:15:47;;;;;;;46.60;42.70;;;;;;;4.05;100.00;103212.06;5008850;28;20049;-74
2023/12/17 14:18:14;;;;;;;45.72;42.30;;;;;;;3.93;100.00;103209.41;4997989;28;20057;-74
2023/12/17 14:20:41;;;;;;;49.72;45.63;;;;;;;3.89;100.00;103204.34;5002758;28;20480;-74
2023/12/17 14:23:08;;;;;;;52.03;47.85;;;;;;;3.91;100.00;103209.53;5002591;28;20133;-74
2023/12/17 14:25:35;;;;;;;54.00;49.35;;;;;;;3.80;100.00;103217.25;5002961;28;20053;-74
2023/12/17 14:28:03;;;;;;;59.58;54.22;;;;;;;3.69;100.00;103212.69;4999858;28;20056;-74
2023/12/17 14:30:30;;;;;;;56.63;51.60;;;;;;;3.73;100.00;103208.09;5003427;28;20329;-73
2023/12/17 14:32:57;;;;;;;44.88;41.88;;;;;;;3.58;100.00;103200.25;4999295;28;20598;-75
2023/12/17 14:35:23;;;;;;;41.22;38.53;;;;;;;3.58;100.00;103205.50;5005522;28;20049;-73
2023/12/17 14:37:50;;;;;;;41.03;38.25;;;;;;;3.43;100.00;103196.84;5000835;28;20096;-73
2023/12/17 14:40:17;;;;;;;38.65;36.03;;;;;;;3.36;100.00;103203.44;5002708;28;20522;-75
2023/12/17 14:42:44;;;;;;;27.35;25.45;;;;;;;3.36;100.00;103202.56;5001385;28;20433;-74
2023/12/17 14:45:12;;;;;;;30.42;28.52;;;;;;;3.28;100.00;103202.22;5011406;28;20054;-74
2023/12/17 14:47:39;;;;;;;32.08;30.23;;;;;;;3.18;100.00;103199.34;5009546;28;20411;-75
2023/12/17 14:50:07;;;;;;;29.23;27.42;;;;;;;3.16;100.00;103195.97;5009414;28;20072;-74